Time;durP1;ratioP1;P1;durP2;ratioP2;P2;SDS_P1;SDS_P2;PMS_P1;PMS_P2;Temp;Humidity;BMP_temperature;BMP_pressure;BME280_temperature;BME280_humidity;BME280_pressure;Samples;Min_cycle;Max_cycle;Signal;HPM_P1;HPM_P2
2024/02/07 00:01:20;;;;;;;4.50;3.57;;;5.80;76.10;;;;;;5075685;28;20204;-83
2024/02/07 00:03:47;;;;;;;8.63;3.80;;;5.80;76.70;;;;;;5066806;28;20572;-83
2024/02/07 00:06:16;;;;;;;5.17;3.80;;;5.70;77.20;;;;;;5066389;28;20193;-82
2024/02/07 00:08:45;;;;;;;7.33;4.20;;;5.60;77.80;;;;;;5058728;28;20197;-84
2024/02/07 00:11:12;;;;;;;6.77;4.10;;;5.60;78.60;;;;;;5062624;28;20197;-82
2024/02/07 00:13:39;;;;;;;6.80;3.83;;;5.60;78.30;;;;;;5069660;28;20197;-83
2024/02/07 00:16:06;;;;;;;6.43;3.73;;;5.60;78.50;;;;;;5071954;28;20197;-82
2024/02/07 00:18:34;;;;;;;6.10;3.60;;;5.70;78.30;;;;;;5047181;28;20548;-82
2024/02/07 00:21:01;;;;;;;8.53;3.63;;;5.60;78.40;;;;;;5078203;28;20197;-82
2024/02/07 00:23:28;;;;;;;6.63;3.53;;;5.60;78.90;;;;;;5058326;28;20200;-81
2024/02/07 00:25:55;;;;;;;4.80;3.60;;;5.60;78.60;;;;;;5077978;28;20201;-82
2024/02/07 00:28:22;;;;;;;5.70;3.40;;;5.70;78.40;;;;;;5078245;28;20201;-82
2024/02/07 00:30:49;;;;;;;8.50;3.70;;;5.70;77.90;;;;;;5053327;28;20229;-83
2024/02/07 00:33:16;;;;;;;4.23;3.70;;;5.70;77.90;;;;;;5061999;28;20194;-82
2024/02/07 00:35:44;;;;;;;4.30;3.50;;;5.70;78.20;;;;;;5068190;28;20202;-82
2024/02/07 00:38:11;;;;;;;4.10;3.53;;;5.60;78.60;;;;;;5072257;28;20656;-83
2024/02/07 00:40:39;;;;;;;4.30;3.20;;;5.60;79.10;;;;;;5067531;28;20201;-84
2024/02/07 00:43:07;;;;;;;5.67;3.90;;;5.60;78.90;;;;;;5051685;28;20204;-82
2024/02/07 00:45:34;;;;;;;5.20;3.27;;;5.60;79.00;;;;;;5069654;28;20247;-82
2024/02/07 00:48:01;;;;;;;4.53;3.43;;;5.60;79.00;;;;;;5070663;28;20197;-84
2024/02/07 00:50:28;;;;;;;6.57;3.57;;;5.70;78.70;;;;;;5052140;28;20226;-82
2024/02/07 00:52:56;;;;;;;4.73;3.80;;;5.70;77.70;;;;;;5066467;28;20252;-82
2024/02/07 00:55:23;;;;;;;6.27;3.40;;;5.80;77.70;;;;;;5065878;28;20648;-83
2024/02/07 00:57:50;;;;;;;6.97;3.57;;;5.80;77.80;;;;;;5071167;28;20229;-85
2024/02/07 01:00:19;;;;;;;4.27;3.40;;;5.80;77.40;;;;;;5064214;28;20215;-82
2024/02/07 01:02:46;;;;;;;9.10;3.70;;;5.70;77.90;;;;;;5070305;28;20229;-84
2024/02/07 01:05:13;;;;;;;4.70;3.70;;;5.80;77.70;;;;;;5076130;28;20259;-84
2024/02/07 01:07:40;;;;;;;4.73;3.10;;;5.70;77.90;;;;;;5054093;28;20192;-83
2024/02/07 01:10:10;;;;;;;5.90;3.40;;;5.80;77.50;;;;;;5067124;28;20223;-84
2024/02/07 01:12:37;;;;;;;5.17;3.60;;;5.80;77.40;;;;;;5063236;28;20198;-83
2024/02/07 01:15:04;;;;;;;4.17;3.50;;;5.80;77.40;;;;;;5058691;28;20193;-84
2024/02/07 01:17:31;;;;;;;3.23;2.93;;;5.80;77.10;;;;;;5075275;28;20198;-83
2024/02/07 01:19:58;;;;;;;5.27;3.57;;;5.80;77.20;;;;;;5076645;28;20204;-84
2024/02/07 01:22:25;;;;;;;5.67;3.63;;;5.70;77.70;;;;;;5061464;28;20198;-83
2024/02/07 01:24:52;;;;;;;6.30;3.63;;;5.70;78.00;;;;;;5069978;28;20205;-83
2024/02/07 01:27:20;;;;;;;7.70;3.77;;;5.70;78.10;;;;;;5055329;28;20197;-84
2024/02/07 01:29:47;;;;;;;5.83;3.60;;;5.60;78.40;;;;;;5055826;28;20731;-83
2024/02/07 01:32:14;;;;;;;4.10;3.47;;;5.80;77.70;;;;;;5068534;28;20224;-83
2024/02/07 01:34:42;;;;;;;5.60;3.37;;;5.80;77.40;;;;;;5031089;28;20201;-83
2024/02/07 01:37:09;;;;;;;6.60;3.67;;;5.80;77.10;;;;;;5069772;28;20288;-84
2024/02/07 01:39:36;;;;;;;3.97;3.37;;;5.80;76.90;;;;;;5066552;28;20665;-84
2024/02/07 01:42:03;;;;;;;4.83;3.63;;;5.80;77.20;;;;;;5065663;28;20189;-84
2024/02/07 01:44:32;;;;;;;6.30;3.60;;;5.80;77.30;;;;;;5063369;28;20196;-83
2024/02/07 01:47:15;;;;;;;6.20;3.20;;;5.80;77.30;;;;;;5048072;28;20561;-83
2024/02/07 01:49:45;;;;;;;4.30;3.23;;;5.80;77.40;;;;;;5065335;28;20210;-84
2024/02/07 01:52:16;;;;;;;4.27;3.17;;;5.80;77.20;;;;;;5064434;28;20657;-84
2024/02/07 01:54:42;;;;;;;6.17;3.10;;;5.70;77.80;;;;;;5073765;28;20616;-83
2024/02/07 01:57:11;;;;;;;5.83;3.33;;;5.70;77.20;;;;;;5075743;28;20217;-82
2024/02/07 01:59:41;;;;;;;5.70;3.27;;;5.70;77.50;;;;;;5068322;28;20662;-82
2024/02/07 02:02:09;;;;;;;4.23;2.80;;;5.80;76.80;;;;;;5068812;28;20934;-82
2024/02/07 02:04:36;;;;;;;4.93;3.27;;;5.90;76.30;;;;;;5066752;28;20193;-82
2024/02/07 02:07:03;;;;;;;5.30;2.90;;;5.90;76.30;;;;;;5067973;28;20198;-82
2024/02/07 02:09:30;;;;;;;5.17;3.03;;;5.90;75.80;;;;;;5074174;28;20202;-83
2024/02/07 02:12:00;;;;;;;4.00;2.60;;;6.00;75.70;;;;;;5077623;28;20657;-82
2024/02/07 02:14:28;;;;;;;5.47;3.00;;;6.00;75.50;;;;;;5072560;28;20498;-82
2024/02/07 02:16:59;;;;;;;7.07;2.90;;;6.00;75.20;;;;;;5077685;28;20194;-84
2024/02/07 02:19:26;;;;;;;3.80;3.03;;;5.90;75.40;;;;;;5055372;28;20213;-84
2024/02/07 02:22:11;;;;;;;3.83;2.90;;;5.90;75.20;;;;;;5036989;28;20209;-84
2024/02/07 02:24:55;;;;;;;4.27;2.80;;;5.80;75.90;;;;;;5071567;28;20278;-84
2024/02/07 02:27:35;;;;;;;4.33;2.90;;;6.00;75.30;;;;;;5069922;28;20208;-83
2024/02/07 02:30:12;;;;;;;3.80;2.87;;;5.90;75.20;;;;;;5063253;28;20280;-83
2024/02/07 02:32:42;;;;;;;5.80;3.17;;;5.90;75.40;;;;;;5070351;28;20196;-84
2024/02/07 02:35:09;;;;;;;5.73;3.63;;;5.90;75.20;;;;;;5083526;28;20205;-83
2024/02/07 02:37:37;;;;;;;5.17;3.10;;;5.90;75.20;;;;;;5058122;28;20201;-83
2024/02/07 02:40:06;;;;;;;5.43;3.37;;;5.90;75.20;;;;;;5072418;28;20197;-83
2024/02/07 02:42:33;;;;;;;5.83;3.40;;;5.80;75.70;;;;;;5073206;28;20664;-83
2024/02/07 02:45:01;;;;;;;5.27;3.40;;;5.80;75.50;;;;;;5063381;28;20223;-83
2024/02/07 02:47:29;;;;;;;5.00;3.40;;;5.80;76.10;;;;;;5062857;28;20201;-84
2024/02/07 02:49:56;;;;;;;6.50;2.93;;;5.80;77.20;;;;;;5081977;28;20220;-83
2024/02/07 02:52:24;;;;;;;7.30;3.40;;;5.70;76.30;;;;;;5072776;28;20193;-83
2024/02/07 02:54:51;;;;;;;8.00;3.30;;;5.80;76.90;;;;;;5074256;28;20567;-84
2024/02/07 02:57:18;;;;;;;5.77;3.07;;;5.80;75.70;;;;;;5066468;28;20217;-85
2024/02/07 02:59:48;;;;;;;5.70;3.30;;;5.70;76.20;;;;;;5070104;28;20217;-83
2024/02/07 03:02:15;;;;;;;4.13;2.80;;;5.80;76.20;;;;;;5065332;28;20185;-83
2024/02/07 03:04:43;;;;;;;4.50;2.97;;;5.90;75.50;;;;;;5079228;28;20196;-83
2024/02/07 03:09:55;;;;;;;6.93;3.30;;;5.90;74.80;;;;;;5068818;28;20673;-83
2024/02/07 03:12:22;;;;;;;3.67;2.83;;;5.90;74.90;;;;;;5075750;28;20200;-83
2024/02/07 03:14:49;;;;;;;4.57;3.10;;;5.90;74.40;;;;;;5080097;28;20212;-83
2024/02/07 03:17:16;;;;;;;5.73;3.47;;;5.90;75.40;;;;;;5079220;28;20193;-83
2024/02/07 03:19:45;;;;;;;4.17;3.13;;;5.90;74.00;;;;;;5072981;28;20192;-83
2024/02/07 03:22:13;;;;;;;4.17;2.83;;;5.90;74.60;;;;;;5065887;28;20239;-83
2024/02/07 03:24:43;;;;;;;7.13;3.37;;;5.90;75.00;;;;;;5067645;28;20209;-83
2024/02/07 03:27:11;;;;;;;6.40;3.20;;;5.80;75.00;;;;;;5071254;28;20215;-85
2024/02/07 03:29:38;;;;;;;5.50;2.90;;;5.80;74.40;;;;;;5068394;28;20193;-82
2024/02/07 03:32:05;;;;;;;5.57;3.20;;;5.80;74.30;;;;;;5056116;28;20580;-86
2024/02/07 03:34:32;;;;;;;7.53;2.90;;;5.80;74.30;;;;;;5071909;28;20201;-83
2024/02/07 03:37:00;;;;;;;8.67;3.27;;;5.80;73.40;;;;;;5067330;28;21035;-82
2024/02/07 03:39:28;;;;;;;4.37;2.90;;;5.80;74.20;;;;;;5052980;28;20201;-82
2024/02/07 03:41:55;;;;;;;3.67;3.00;;;5.90;72.10;;;;;;5070107;28;20255;-84
2024/02/07 03:44:23;;;;;;;2.90;2.53;;;6.00;70.70;;;;;;5067885;28;20202;-83
2024/02/07 03:46:50;;;;;;;5.60;2.70;;;6.10;70.90;;;;;;5071412;28;20229;-83
2024/02/07 03:49:16;;;;;;;5.70;3.00;;;6.20;71.00;;;;;;5071700;28;20530;-83
2024/02/07 03:51:43;;;;;;;4.73;2.47;;;6.10;70.90;;;;;;5072284;28;20245;-83
2024/02/07 03:54:12;;;;;;;5.93;2.40;;;6.10;72.30;;;;;;5072367;28;20213;-82
2024/02/07 03:56:38;;;;;;;3.67;2.60;;;6.10;72.30;;;;;;5070492;28;20221;-81
2024/02/07 03:59:06;;;;;;;9.13;2.40;;;6.10;70.90;;;;;;5080769;28;20677;-81
2024/02/07 04:01:33;;;;;;;3.60;2.47;;;6.10;72.30;;;;;;5068518;28;20664;-81
2024/02/07 04:04:00;;;;;;;4.80;3.07;;;6.10;69.30;;;;;;5070769;28;20208;-81
2024/02/07 04:06:28;;;;;;;4.37;3.00;;;6.10;69.10;;;;;;5070353;28;20193;-83
2024/02/07 04:08:55;;;;;;;6.23;3.23;;;6.20;67.20;;;;;;5076252;28;20707;-86
2024/02/07 05:16:40;;;;;;;6.17;2.97;;;6.40;65.60;;;;;;5049060;28;20201;-82
2024/02/07 05:19:07;;;;;;;5.07;2.87;;;6.40;66.30;;;;;;5058819;28;20212;-81
2024/02/07 05:21:36;;;;;;;5.10;3.03;;;6.50;65.90;;;;;;5073102;28;20657;-82
2024/02/07 05:24:05;;;;;;;5.87;2.83;;;6.60;65.00;;;;;;5048846;28;20194;-82
2024/02/07 05:26:35;;;;;;;5.57;3.10;;;6.60;65.20;;;;;;5064737;28;20289;-82
2024/02/07 05:29:02;;;;;;;6.13;2.93;;;6.60;64.70;;;;;;5064223;28;20285;-84
2024/02/07 05:31:30;;;;;;;5.23;2.63;;;6.60;64.30;;;;;;5070997;28;20213;-87
2024/02/07 05:33:58;;;;;;;4.93;2.83;;;6.50;65.00;;;;;;5071144;28;20243;-85
2024/02/07 05:36:25;;;;;;;5.27;2.60;;;6.50;65.30;;;;;;5067158;28;20638;-84
2024/02/07 05:38:53;;;;;;;4.97;2.80;;;6.60;64.60;;;;;;5072350;28;20203;-86
2024/02/07 05:41:21;;;;;;;4.33;2.40;;;6.60;64.80;;;;;;5072320;28;20350;-85
2024/02/07 05:43:51;;;;;;;7.70;2.37;;;6.60;64.40;;;;;;5071643;28;20213;-85
2024/02/07 05:46:18;;;;;;;5.47;2.30;;;6.70;63.00;;;;;;5075927;28;20190;-83
2024/02/07 05:48:45;;;;;;;5.30;2.47;;;6.70;64.10;;;;;;5069470;28;20205;-85
2024/02/07 05:51:20;;;;;;;4.37;2.43;;;6.70;64.30;;;;;;5081901;28;20228;-83
2024/02/07 05:53:47;;;;;;;6.37;2.53;;;6.70;63.80;;;;;;5077014;28;20576;-83
2024/02/07 05:56:15;;;;;;;6.27;2.67;;;6.70;64.10;;;;;;5071428;28;20223;-82
2024/02/07 05:58:42;;;;;;;8.00;2.50;;;6.80;63.70;;;;;;5077192;28;20259;-83
2024/02/07 06:01:09;;;;;;;5.03;2.43;;;6.80;62.80;;;;;;5074768;28;20198;-81
2024/02/07 06:03:36;;;;;;;4.07;2.10;;;7.00;62.10;;;;;;5073252;28;20562;-81
2024/02/07 06:06:04;;;;;;;7.97;2.70;;;7.10;61.30;;;;;;5072294;28;20256;-81
2024/02/07 06:08:32;;;;;;;6.93;2.67;;;7.10;60.50;;;;;;5072726;28;20197;-82
2024/02/07 06:10:59;;;;;;;5.70;2.43;;;7.20;59.90;;;;;;5069729;28;20271;-91
2024/02/07 06:13:26;;;;;;;5.00;2.30;;;7.20;59.70;;;;;;5046259;28;20260;-89
2024/02/07 06:15:53;;;;;;;5.20;2.50;;;7.20;59.30;;;;;;5053425;28;20207;-88
2024/02/07 06:18:20;;;;;;;3.67;1.90;;;7.30;59.00;;;;;;5062736;28;20197;-89
2024/02/07 06:20:47;;;;;;;5.47;2.30;;;7.30;60.30;;;;;;5071654;28;20231;-87
2024/02/07 06:23:13;;;;;;;4.80;2.20;;;7.30;58.80;;;;;;5069255;28;20202;-87
2024/02/07 06:25:42;;;;;;;3.50;2.33;;;7.40;58.70;;;;;;5073764;28;21103;-87
2024/02/07 06:28:09;;;;;;;9.25;2.83;;;7.30;58.70;;;;;;5056503;28;20652;-89
2024/02/07 06:30:36;;;;;;;8.93;2.20;;;7.30;58.40;;;;;;5052623;28;20558;-89
2024/02/07 06:33:03;;;;;;;3.83;1.80;;;7.30;58.50;;;;;;5076179;28;20292;-89
2024/02/07 06:35:30;;;;;;;4.73;1.87;;;7.30;58.90;;;;;;5087335;28;20197;-89
2024/02/07 06:38:25;;;;;;;8.00;2.10;;;7.30;58.40;;;;;;5079553;28;20560;-87
2024/02/07 06:40:53;;;;;;;5.63;1.80;;;7.40;58.70;;;;;;5068883;28;20189;-88
2024/02/07 06:43:20;;;;;;;5.63;2.07;;;7.40;58.10;;;;;;5072845;28;20201;-89
2024/02/07 06:45:47;;;;;;;5.55;2.20;;;7.40;58.00;;;;;;5080869;28;20212;-88
2024/02/07 06:48:14;;;;;;;3.73;2.10;;;7.40;58.10;;;;;;5054301;28;20202;-89
2024/02/07 06:50:41;;;;;;;4.72;2.00;;;7.40;58.40;;;;;;5059412;28;20223;-89
2024/02/07 06:53:08;;;;;;;6.83;2.23;;;7.40;58.60;;;;;;5066269;28;20210;-91
2024/02/07 06:55:35;;;;;;;3.43;1.77;;;7.40;58.00;;;;;;5077635;28;20197;-89
2024/02/07 06:58:03;;;;;;;2.58;1.90;;;7.50;57.40;;;;;;5054954;28;20713;-88
2024/02/07 07:00:30;;;;;;;3.50;1.90;;;7.40;57.60;;;;;;5077239;28;20208;-89
2024/02/07 07:02:57;;;;;;;6.67;2.13;;;7.50;57.30;;;;;;5060535;28;20224;-88
2024/02/07 07:05:24;;;;;;;4.37;2.00;;;7.50;57.20;;;;;;5037018;28;20613;-88
2024/02/07 07:07:51;;;;;;;8.05;2.10;;;7.50;58.70;;;;;;5058896;28;20212;-88
2024/02/07 07:10:18;;;;;;;4.90;1.70;;;7.50;57.30;;;;;;5071377;28;20202;-88
2024/02/07 07:12:45;;;;;;;6.20;2.10;;;7.50;57.30;;;;;;5067794;28;20674;-89
2024/02/07 07:15:14;;;;;;;4.45;1.88;;;7.50;57.30;;;;;;5052187;28;20216;-88
2024/02/07 07:17:41;;;;;;;6.22;2.13;;;7.50;57.40;;;;;;5056043;28;20205;-88
2024/02/07 07:20:09;;;;;;;4.40;1.90;;;7.50;58.00;;;;;;5034587;28;20204;-89
2024/02/07 07:22:35;;;;;;;7.38;1.80;;;7.60;57.10;;;;;;5075856;28;20205;-88
2024/02/07 07:25:02;;;;;;;5.72;2.13;;;7.70;57.20;;;;;;5072958;28;20856;-88
2024/02/07 07:27:30;;;;;;;6.30;1.90;;;7.70;56.50;;;;;;5058092;28;20196;-88
2024/02/07 07:29:57;;;;;;;6.13;1.70;;;7.90;55.60;;;;;;5042569;28;20205;-89
2024/02/07 07:32:25;;;;;;;4.25;1.70;;;7.90;55.20;;;;;;5039776;28;20221;-88
2024/02/07 07:34:52;;;;;;;5.68;1.85;;;8.00;54.40;;;;;;5073528;28;20665;-88
2024/02/07 07:37:20;;;;;;;4.40;2.10;;;8.10;53.70;;;;;;5071811;28;20197;-88
2024/02/07 07:39:47;;;;;;;4.72;1.63;;;8.10;54.70;;;;;;5059971;28;20670;-89
2024/02/07 07:42:14;;;;;;;2.58;1.75;;;8.10;53.20;;;;;;5073806;28;20203;-89
2024/02/07 07:44:42;;;;;;;4.35;1.60;;;8.20;53.10;;;;;;5056402;28;20197;-88
2024/02/07 07:47:09;;;;;;;3.83;1.70;;;8.30;51.90;;;;;;5051817;28;20287;-89
2024/02/07 07:49:37;;;;;;;3.53;1.77;;;8.30;52.00;;;;;;5070841;28;20189;-89
2024/02/07 07:52:04;;;;;;;4.53;1.92;;;8.40;51.60;;;;;;5075064;28;20224;-88
2024/02/07 07:54:31;;;;;;;3.70;1.67;;;8.70;49.10;;;;;;5052599;28;20193;-89
2024/02/07 07:56:59;;;;;;;6.13;1.67;;;9.10;47.60;;;;;;5075217;28;20224;-89
2024/02/07 07:59:26;;;;;;;4.20;1.80;;;9.20;45.80;;;;;;5071251;28;20211;-89
2024/02/07 08:01:58;;;;;;;5.63;1.70;;;9.10;45.80;;;;;;5073344;28;20206;-88
2024/02/07 08:04:26;;;;;;;4.28;2.28;;;9.00;46.30;;;;;;5053292;28;20244;-89
2024/02/07 08:06:55;;;;;;;4.72;2.08;;;8.90;47.40;;;;;;5068713;28;20649;-89
2024/02/07 08:09:23;;;;;;;4.10;1.80;;;8.80;47.40;;;;;;5068239;28;20201;-89
2024/02/07 08:11:50;;;;;;;5.45;1.98;;;8.90;47.40;;;;;;5036513;28;20225;-89
2024/02/07 08:14:16;;;;;;;3.90;1.70;;;9.00;46.90;;;;;;5063533;28;20201;-88
2024/02/07 08:16:44;;;;;;;4.57;2.00;;;9.10;45.30;;;;;;5067344;28;20828;-88
2024/02/07 08:19:14;;;;;;;5.32;1.60;;;9.20;45.30;;;;;;5065011;28;20204;-89
2024/02/07 08:21:41;;;;;;;3.72;1.80;;;9.40;44.00;;;;;;5069550;28;20202;-88
2024/02/07 08:24:09;;;;;;;5.47;1.70;;;9.30;44.50;;;;;;5065650;28;20190;-89
2024/02/07 08:26:36;;;;;;;3.67;1.73;;;9.20;44.20;;;;;;5053262;28;20197;-89
2024/02/07 08:29:03;;;;;;;5.40;2.10;;;9.10;44.70;;;;;;5073061;28;20255;-88
2024/02/07 08:31:31;;;;;;;5.05;1.80;;;9.20;44.90;;;;;;5069283;28;20225;-90
2024/02/07 08:33:58;;;;;;;6.22;2.22;;;9.10;44.70;;;;;;5041674;28;20205;-89
2024/02/07 08:36:25;;;;;;;3.53;1.70;;;9.10;45.10;;;;;;5054104;28;20272;-88
2024/02/07 08:38:52;;;;;;;5.32;1.92;;;9.10;45.60;;;;;;5069413;28;20205;-88
2024/02/07 08:41:20;;;;;;;8.38;1.90;;;9.30;45.80;;;;;;5058070;28;20211;-89
2024/02/07 08:43:47;;;;;;;3.78;1.75;;;9.40;44.70;;;;;;5048835;28;20682;-88
2024/02/07 08:46:14;;;;;;;7.03;1.70;;;9.60;44.20;;;;;;5062609;28;20634;-89
2024/02/07 08:48:41;;;;;;;2.67;1.52;;;9.70;43.00;;;;;;5035504;28;20668;-89
2024/02/07 08:51:08;;;;;;;5.40;1.83;;;10.00;39.80;;;;;;5052760;28;20232;-88
2024/02/07 08:53:35;;;;;;;3.63;1.80;;;10.20;39.60;;;;;;5044552;28;20225;-88
2024/02/07 08:56:01;;;;;;;4.22;1.80;;;10.40;38.20;;;;;;5064605;28;20201;-88
2024/02/07 08:58:50;;;;;;;5.90;1.60;;;10.60;36.40;;;;;;5049244;28;20205;-89
2024/02/07 09:01:17;;;;;;;4.03;1.70;;;11.10;34.20;;;;;;5074592;28;20288;-89
2024/02/07 09:03:44;;;;;;;3.33;1.63;;;11.10;32.10;;;;;;5055728;28;20702;-89
2024/02/07 09:06:27;;;;;;;4.18;1.85;;;11.30;31.30;;;;;;5040046;28;20209;-89
2024/02/07 09:08:53;;;;;;;3.50;1.90;;;11.50;31.60;;;;;;5070965;28;20215;-89
2024/02/07 09:11:20;;;;;;;5.05;1.80;;;11.90;29.20;;;;;;5068963;28;20207;-89
2024/02/07 09:13:55;;;;;;;5.00;1.60;;;11.70;28.50;;;;;;5082882;28;20653;-89
2024/02/07 09:16:22;;;;;;;4.85;1.70;;;11.50;29.00;;;;;;5073268;28;20208;-91
2024/02/07 09:18:51;;;;;;;4.18;1.63;;;11.40;30.60;;;;;;5045947;28;20666;-88
2024/02/07 09:24:31;;;;;;;5.78;2.05;;;11.20;30.70;;;;;;5071084;28;20203;-92
2024/02/07 09:27:16;;;;;;;3.28;1.60;;;10.90;31.20;;;;;;5052171;28;20197;-90
2024/02/07 09:29:57;;;;;;;7.40;1.65;;;11.20;30.80;;;;;;5073767;28;20251;-88
2024/02/07 09:32:39;;;;;;;2.88;1.70;;;11.90;28.60;;;;;;5060333;28;20216;-88
2024/02/07 09:35:06;;;;;;;3.53;1.52;;;13.10;26.20;;;;;;5060096;28;20902;-89
2024/02/07 09:37:33;;;;;;;4.75;1.70;;;14.40;20.20;;;;;;5071277;28;20280;-89
2024/02/07 09:40:00;;;;;;;3.38;1.80;;;14.80;18.20;;;;;;5073258;28;20231;-90
2024/02/07 09:42:28;;;;;;;3.45;1.48;;;14.70;17.70;;;;;;5069690;28;20197;-89
2024/02/07 09:44:57;;;;;;;5.50;1.80;;;14.50;18.50;;;;;;5070134;28;20209;-89
2024/02/07 09:47:25;;;;;;;4.45;1.67;;;13.80;19.60;;;;;;5058755;28;20197;-88
2024/02/07 09:49:54;;;;;;;3.15;1.90;;;13.70;20.10;;;;;;5076947;28;20406;-89
2024/02/07 09:52:22;;;;;;;2.65;1.65;;;14.20;19.60;;;;;;5034560;28;20224;-88
2024/02/07 09:54:51;;;;;;;2.30;1.63;;;14.60;18.50;;;;;;5070731;28;20202;-90
2024/02/07 09:57:18;;;;;;;4.43;1.92;;;15.00;17.70;;;;;;5076149;28;20270;-88
2024/02/07 09:59:46;;;;;;;5.63;2.05;;;15.10;17.10;;;;;;5057830;28;20205;-89
2024/02/07 10:02:17;;;;;;;4.22;1.80;;;15.00;17.00;;;;;;5071206;28;20268;-89
2024/02/07 10:04:51;;;;;;;3.83;1.65;;;15.10;17.20;;;;;;5054500;28;21396;-89
2024/02/07 10:07:19;;;;;;;2.80;1.80;;;15.30;17.20;;;;;;5072036;28;20644;-89
2024/02/07 10:09:57;;;;;;;4.75;1.70;;;15.50;16.20;;;;;;5056188;28;20280;-89
2024/02/07 10:12:25;;;;;;;7.25;1.52;;;15.40;16.70;;;;;;5068846;28;20227;-89
2024/02/07 10:14:52;;;;;;;2.65;1.55;;;14.90;17.00;;;;;;5052142;28;20201;-90
2024/02/07 10:17:20;;;;;;;5.63;1.77;;;14.20;18.30;;;;;;5062902;28;20209;-89
2024/02/07 10:19:54;;;;;;;3.97;1.85;;;13.70;19.30;;;;;;5073217;28;20217;-89
2024/02/07 10:22:21;;;;;;;4.15;1.63;;;13.00;20.60;;;;;;5068391;28;20255;-89
2024/02/07 10:24:48;;;;;;;2.45;1.60;;;12.80;22.00;;;;;;5077939;28;20208;-90
2024/02/07 10:27:19;;;;;;;2.80;1.80;;;12.50;23.20;;;;;;5071458;28;20205;-89
2024/02/07 10:29:46;;;;;;;5.35;1.33;;;12.40;25.30;;;;;;5050144;28;20194;-89
2024/02/07 10:32:18;;;;;;;5.32;1.70;;;12.40;25.70;;;;;;5071549;28;20276;-89
2024/02/07 10:35:05;;;;;;;2.33;1.30;;;12.30;25.60;;;;;;5049628;28;20206;-89
2024/02/07 10:37:40;;;;;;;2.70;1.42;;;12.30;25.60;;;;;;5072339;28;20224;-89
2024/02/07 10:40:09;;;;;;;3.38;1.42;;;12.50;25.60;;;;;;5073471;28;20189;-90
2024/02/07 10:45:37;;;;;;;4.88;1.75;;;12.90;24.00;;;;;;5066805;28;20196;-89
2024/02/07 10:48:15;;;;;;;5.20;1.45;;;12.90;23.70;;;;;;5047240;28;20201;-89
2024/02/07 10:50:52;;;;;;;3.95;1.55;;;13.00;23.20;;;;;;5088801;28;20201;-89
2024/02/07 10:53:19;;;;;;;3.75;1.30;;;13.00;23.80;;;;;;5066092;28;20218;-89
2024/02/07 10:55:46;;;;;;;2.75;1.33;;;12.90;23.00;;;;;;5067856;28;20198;-90
2024/02/07 10:58:22;;;;;;;2.33;1.20;;;13.10;22.10;;;;;;5069569;28;20193;-89
2024/02/07 11:00:51;;;;;;;2.80;1.20;;;13.30;22.50;;;;;;5081640;28;20568;-90
2024/02/07 11:03:23;;;;;;;3.20;1.48;;;13.70;20.60;;;;;;5072032;28;20565;-89
2024/02/07 11:06:09;;;;;;;9.38;1.52;;;13.40;20.70;;;;;;5072394;28;20202;-89
2024/02/07 11:11:27;;;;;;;3.95;1.63;;;13.10;21.60;;;;;;5077816;28;20197;-89
2024/02/07 11:13:57;;;;;;;5.60;1.67;;;12.80;23.30;;;;;;5048176;28;20227;-89
2024/02/07 11:16:24;;;;;;;2.10;1.58;;;12.70;24.30;;;;;;5058181;28;20197;-90
2024/02/07 11:18:51;;;;;;;3.05;1.20;;;12.70;23.50;;;;;;5074650;28;20645;-89
2024/02/07 11:21:24;;;;;;;4.68;1.65;;;12.40;23.20;;;;;;5070040;28;20212;-89
2024/02/07 11:23:53;;;;;;;5.55;1.40;;;12.10;25.40;;;;;;5076675;28;20216;-89
2024/02/07 11:26:25;;;;;;;3.83;1.40;;;12.10;25.40;;;;;;5057192;28;20198;-89
2024/02/07 11:34:19;;;;;;;4.30;1.40;;;12.20;25.50;;;;;;5072182;28;20235;-89
2024/02/07 11:36:57;;;;;;;3.28;1.50;;;12.00;25.40;;;;;;5068848;28;20214;-89
2024/02/07 11:39:24;;;;;;;7.40;1.60;;;11.90;25.20;;;;;;5053692;28;20697;-89
2024/02/07 11:41:51;;;;;;;3.15;1.50;;;11.70;25.10;;;;;;5069027;28;20192;-90
2024/02/07 11:44:18;;;;;;;3.75;1.50;;;11.50;24.90;;;;;;5068681;28;20202;-89
2024/02/07 11:46:53;;;;;;;2.78;1.50;;;11.60;25.10;;;;;;5055244;28;20658;-89
2024/02/07 11:49:37;;;;;;;6.13;1.60;;;11.60;25.00;;;;;;5057475;28;20193;-89
2024/02/07 11:52:13;;;;;;;2.50;1.33;;;11.60;25.10;;;;;;5063570;28;20657;-89
2024/02/07 11:54:43;;;;;;;3.90;1.77;;;11.70;25.10;;;;;;5044413;28;20225;-89
2024/02/07 11:57:11;;;;;;;3.35;1.38;;;11.80;25.20;;;;;;5059329;28;20224;-89
2024/02/07 11:59:38;;;;;;;4.50;1.50;;;11.90;25.30;;;;;;5054465;28;20201;-89
2024/02/07 12:02:11;;;;;;;2.88;1.30;;;11.90;25.20;;;;;;5053016;28;20205;-89
2024/02/07 12:04:44;;;;;;;2.15;1.40;;;12.00;25.30;;;;;;5074960;28;20197;-89
2024/02/07 12:07:23;;;;;;;2.67;1.60;;;12.10;25.40;;;;;;5046487;28;20205;-89
2024/02/07 12:09:51;;;;;;;2.05;1.42;;;12.20;25.50;;;;;;5077313;28;20658;-89
2024/02/07 12:12:42;;;;;;;2.65;1.17;;;12.30;24.80;;;;;;5073839;28;20204;-89
2024/02/07 12:15:12;;;;;;;2.92;1.40;;;12.10;24.50;;;;;;5067814;28;20212;-89
2024/02/07 12:17:42;;;;;;;1.92;1.23;;;12.10;25.40;;;;;;5067944;28;20201;-89
2024/02/07 12:20:22;;;;;;;1.92;1.30;;;12.10;25.40;;;;;;5073372;28;20556;-89
2024/02/07 12:22:58;;;;;;;3.50;1.40;;;12.00;25.30;;;;;;5075615;28;20521;-90
2024/02/07 12:25:25;;;;;;;5.72;1.63;;;11.70;25.10;;;;;;5074948;28;20652;-89
2024/02/07 12:27:52;;;;;;;2.63;1.42;;;11.50;24.90;;;;;;5056382;28;20580;-89
2024/02/07 12:30:19;;;;;;;2.30;1.48;;;11.50;24.90;;;;;;5051091;28;20205;-89
2024/02/07 12:32:46;;;;;;;4.85;1.40;;;11.50;24.90;;;;;;5056421;28;20221;-89
2024/02/07 12:35:13;;;;;;;4.63;1.63;;;11.40;24.80;;;;;;5053943;28;20258;-89
2024/02/07 12:37:41;;;;;;;2.75;1.50;;;11.30;25.00;;;;;;5067626;28;20645;-91
2024/02/07 12:40:15;;;;;;;2.90;1.40;;;11.30;24.80;;;;;;5053810;28;20209;-89
2024/02/07 12:42:43;;;;;;;1.98;1.40;;;11.40;24.80;;;;;;5065838;28;20195;-88
2024/02/07 12:45:12;;;;;;;7.85;1.88;;;11.40;24.80;;;;;;5071340;28;20190;-88
2024/02/07 12:47:39;;;;;;;2.30;1.27;;;11.30;24.70;;;;;;5070450;28;20204;-89
2024/02/07 12:50:08;;;;;;;1.38;1.20;;;11.30;24.70;;;;;;5049868;28;20201;-88
2024/02/07 12:52:37;;;;;;;3.65;1.50;;;11.40;24.80;;;;;;5070314;28;20197;-90
2024/02/07 12:55:05;;;;;;;3.92;1.50;;;11.40;24.80;;;;;;5043728;28;20650;-88
2024/02/07 12:57:34;;;;;;;2.97;1.83;;;11.50;24.90;;;;;;5069548;28;20217;-89
2024/02/07 13:00:10;;;;;;;2.60;1.63;;;11.40;24.80;;;;;;5071852;28;20220;-88
2024/02/07 13:02:45;;;;;;;3.40;1.48;;;11.30;24.70;;;;;;5052189;28;20292;-89
2024/02/07 13:05:12;;;;;;;3.58;1.60;;;11.30;24.70;;;;;;5077969;28;20555;-89
2024/02/07 13:07:39;;;;;;;4.07;1.63;;;11.30;24.70;;;;;;5046719;28;20194;-89
2024/02/07 13:10:07;;;;;;;2.05;1.35;;;11.30;24.80;;;;;;5066089;28;20556;-89
2024/02/07 13:12:35;;;;;;;3.78;1.90;;;11.30;24.70;;;;;;5054666;28;20208;-89
2024/02/07 13:15:03;;;;;;;4.35;1.63;;;11.30;24.70;;;;;;5063592;28;20201;-89
2024/02/07 13:17:35;;;;;;;5.82;1.63;;;11.30;24.80;;;;;;5044455;28;20193;-89
2024/02/07 13:20:05;;;;;;;3.85;1.15;;;11.40;24.80;;;;;;5061418;28;20197;-89
2024/02/07 13:22:38;;;;;;;4.03;1.70;;;11.40;24.80;;;;;;5065369;28;20202;-88
2024/02/07 13:25:09;;;;;;;3.15;1.60;;;11.30;24.80;;;;;;5074008;28;20207;-88
2024/02/07 13:27:40;;;;;;;2.15;1.33;;;11.40;24.80;;;;;;5069020;28;20209;-89
2024/02/07 13:30:09;;;;;;;3.58;1.45;;;11.30;24.70;;;;;;5045795;28;20297;-90
2024/02/07 13:32:40;;;;;;;1.88;1.17;;;11.30;24.70;;;;;;5067528;28;20205;-89
2024/02/07 13:35:29;;;;;;;3.38;1.40;;;11.30;24.70;;;;;;5076959;28;20197;-89
2024/02/07 13:40:42;;;;;;;5.18;1.60;;;11.30;25.90;;;;;;5069768;28;20201;-89
2024/02/07 13:43:17;;;;;;;2.75;1.50;;;11.30;24.70;;;;;;5049745;28;20276;-89
2024/02/07 13:45:48;;;;;;;4.57;3.40;;;11.30;24.70;;;;;;5065858;28;20319;-89
2024/02/07 13:48:15;;;;;;;3.20;2.08;;;11.40;24.80;;;;;;5064919;28;20204;-90
2024/02/07 13:50:50;;;;;;;3.13;1.05;;;11.40;24.80;;;;;;5070794;28;20251;-89
2024/02/07 13:53:20;;;;;;;2.22;1.52;;;11.40;24.80;;;;;;5077269;28;20216;-90
2024/02/07 13:56:03;;;;;;;3.17;1.50;;;11.40;24.80;;;;;;5069868;28;20258;-88
2024/02/07 13:58:36;;;;;;;3.75;1.70;;;11.30;24.70;;;;;;5086213;28;20517;-87
2024/02/07 14:01:03;;;;;;;2.83;1.40;;;11.30;24.70;;;;;;5069519;28;20205;-90
2024/02/07 14:03:29;;;;;;;2.22;1.50;;;11.40;24.80;;;;;;5056446;28;20202;-86
2024/02/07 14:05:56;;;;;;;2.10;1.27;;;11.30;24.70;;;;;;5073105;28;20201;-86
2024/02/07 14:08:25;;;;;;;2.83;1.40;;;11.20;24.70;;;;;;5068777;28;20295;-86
2024/02/07 14:10:52;;;;;;;4.10;1.42;;;11.30;24.70;;;;;;5054692;28;20205;-87
2024/02/07 14:13:19;;;;;;;2.03;1.30;;;11.20;24.60;;;;;;5075129;28;20579;-86
2024/02/07 14:15:58;;;;;;;2.03;1.40;;;11.20;24.70;;;;;;5069316;28;20229;-85
2024/02/07 14:18:26;;;;;;;2.50;1.40;;;11.30;24.70;;;;;;5056348;28;20205;-85
2024/02/07 14:20:53;;;;;;;2.78;1.60;;;11.30;25.80;;;;;;5036204;28;20231;-85
2024/02/07 14:23:20;;;;;;;2.15;1.77;;;11.40;24.80;;;;;;5072293;28;20198;-86
2024/02/07 14:25:48;;;;;;;5.07;1.55;;;11.30;24.70;;;;;;5075721;28;20208;-86
2024/02/07 14:28:15;;;;;;;4.13;1.70;;;11.40;24.80;;;;;;5064370;28;20326;-87